sensor_id;sensor_type;location;lat;lon;timestamp;P1;durP1;ratioP1;P2;durP2;ratioP2
4055;SDS011;2043;52.184;8.690;2022-09-09T00:04:10;3.00;;;1.50;;
4055;SDS011;2043;52.184;8.690;2022-09-09T00:06:44;2.90;;;1.60;;
4055;SDS011;2043;52.184;8.690;2022-09-09T00:09:21;3.33;;;1.70;;
4055;SDS011;2043;52.184;8.690;2022-09-09T00:11:52;3.60;;;1.70;;
4055;SDS011;2043;52.184;8.690;2022-09-09T00:14:36;2.87;;;1.47;;
4055;SDS011;2043;52.184;8.690;2022-09-09T00:17:19;3.07;;;1.43;;
4055;SDS011;2043;52.184;8.690;2022-09-09T00:20:00;2.90;;;1.50;;
4055;SDS011;2043;52.184;8.690;2022-09-09T00:22:54;3.40;;;1.50;;
4055;SDS011;2043;52.184;8.690;2022-09-09T00:28:45;3.10;;;1.63;;
4055;SDS011;2043;52.184;8.690;2022-09-09T00:31:28;3.43;;;1.60;;
4055;SDS011;2043;52.184;8.690;2022-09-09T00:36:41;2.90;;;1.50;;
4055;SDS011;2043;52.184;8.690;2022-09-09T00:39:23;4.37;;;1.57;;
4055;SDS011;2043;52.184;8.690;2022-09-09T00:42:02;2.70;;;1.43;;
4055;SDS011;2043;52.184;8.690;2022-09-09T00:44:38;3.10;;;1.50;;
4055;SDS011;2043;52.184;8.690;2022-09-09T00:55:48;2.50;;;1.30;;
4055;SDS011;2043;52.184;8.690;2022-09-09T00:58:28;2.93;;;1.50;;
4055;SDS011;2043;52.184;8.690;2022-09-09T01:03:35;3.60;;;1.67;;
4055;SDS011;2043;52.184;8.690;2022-09-09T01:06:13;2.77;;;1.40;;
4055;SDS011;2043;52.184;8.690;2022-09-09T01:14:50;2.90;;;1.70;;
4055;SDS011;2043;52.184;8.690;2022-09-09T01:20:20;3.53;;;1.43;;
4055;SDS011;2043;52.184;8.690;2022-09-09T01:26:11;3.07;;;1.37;;
4055;SDS011;2043;52.184;8.690;2022-09-09T01:28:49;3.40;;;1.70;;
4055;SDS011;2043;52.184;8.690;2022-09-09T01:31:21;4.40;;;1.60;;
4055;SDS011;2043;52.184;8.690;2022-09-09T01:33:54;2.73;;;1.40;;
4055;SDS011;2043;52.184;8.690;2022-09-09T01:38:52;2.40;;;1.20;;
4055;SDS011;2043;52.184;8.690;2022-09-09T01:41:20;3.03;;;1.57;;
4055;SDS011;2043;52.184;8.690;2022-09-09T01:43:47;4.10;;;1.60;;
4055;SDS011;2043;52.184;8.690;2022-09-09T01:46:15;4.13;;;1.50;;
4055;SDS011;2043;52.184;8.690;2022-09-09T01:48:43;2.67;;;1.30;;
4055;SDS011;2043;52.184;8.690;2022-09-09T01:51:11;3.47;;;1.50;;
4055;SDS011;2043;52.184;8.690;2022-09-09T01:53:39;4.50;;;1.67;;
4055;SDS011;2043;52.184;8.690;2022-09-09T02:01:54;3.00;;;1.30;;
4055;SDS011;2043;52.184;8.690;2022-09-09T02:06:59;5.77;;;1.80;;
4055;SDS011;2043;52.184;8.690;2022-09-09T02:09:26;4.63;;;1.40;;
4055;SDS011;2043;52.184;8.690;2022-09-09T02:12:01;3.40;;;1.50;;
4055;SDS011;2043;52.184;8.690;2022-09-09T02:14:39;3.97;;;1.60;;
4055;SDS011;2043;52.184;8.690;2022-09-09T02:17:13;2.73;;;1.40;;
4055;SDS011;2043;52.184;8.690;2022-09-09T02:19:49;2.70;;;1.43;;
4055;SDS011;2043;52.184;8.690;2022-09-09T02:22:23;3.20;;;1.27;;
4055;SDS011;2043;52.184;8.690;2022-09-09T02:24:52;2.83;;;1.40;;
4055;SDS011;2043;52.184;8.690;2022-09-09T02:27:25;4.13;;;1.40;;
4055;SDS011;2043;52.184;8.690;2022-09-09T02:29:53;3.17;;;1.47;;
4055;SDS011;2043;52.184;8.690;2022-09-09T02:32:23;3.20;;;1.70;;
4055;SDS011;2043;52.184;8.690;2022-09-09T02:35:10;3.13;;;1.53;;
4055;SDS011;2043;52.184;8.690;2022-09-09T02:37:42;3.00;;;1.40;;
4055;SDS011;2043;52.184;8.690;2022-09-09T02:40:12;2.50;;;1.30;;
4055;SDS011;2043;52.184;8.690;2022-09-09T02:42:42;5.23;;;1.50;;
4055;SDS011;2043;52.184;8.690;2022-09-09T02:45:13;2.53;;;1.40;;
4055;SDS011;2043;52.184;8.690;2022-09-09T02:50:25;2.30;;;1.20;;
4055;SDS011;2043;52.184;8.690;2022-09-09T02:52:59;2.77;;;1.20;;
4055;SDS011;2043;52.184;8.690;2022-09-09T02:55:39;3.47;;;1.40;;
4055;SDS011;2043;52.184;8.690;2022-09-09T02:58:13;2.70;;;1.40;;
4055;SDS011;2043;52.184;8.690;2022-09-09T03:00:45;3.13;;;1.30;;
4055;SDS011;2043;52.184;8.690;2022-09-09T03:03:14;2.73;;;1.23;;
4055;SDS011;2043;52.184;8.690;2022-09-09T03:05:42;2.87;;;1.27;;
4055;SDS011;2043;52.184;8.690;2022-09-09T03:08:11;3.33;;;1.40;;
4055;SDS011;2043;52.184;8.690;2022-09-09T03:10:39;2.70;;;1.40;;
4055;SDS011;2043;52.184;8.690;2022-09-09T03:13:06;2.73;;;1.17;;
4055;SDS011;2043;52.184;8.690;2022-09-09T03:15:34;2.50;;;1.20;;
4055;SDS011;2043;52.184;8.690;2022-09-09T03:18:01;3.40;;;1.40;;
4055;SDS011;2043;52.184;8.690;2022-09-09T03:20:29;2.77;;;1.40;;
4055;SDS011;2043;52.184;8.690;2022-09-09T03:22:56;2.60;;;1.20;;
4055;SDS011;2043;52.184;8.690;2022-09-09T03:25:25;2.70;;;1.40;;
4055;SDS011;2043;52.184;8.690;2022-09-09T03:27:53;2.60;;;1.40;;
4055;SDS011;2043;52.184;8.690;2022-09-09T03:30:22;2.53;;;1.40;;
4055;SDS011;2043;52.184;8.690;2022-09-09T03:32:49;2.87;;;1.40;;
4055;SDS011;2043;52.184;8.690;2022-09-09T03:35:16;2.70;;;1.30;;
4055;SDS011;2043;52.184;8.690;2022-09-09T03:37:43;3.17;;;1.70;;
4055;SDS011;2043;52.184;8.690;2022-09-09T03:40:10;5.37;;;1.60;;
4055;SDS011;2043;52.184;8.690;2022-09-09T03:42:38;2.50;;;1.30;;
4055;SDS011;2043;52.184;8.690;2022-09-09T03:45:06;3.43;;;1.50;;
4055;SDS011;2043;52.184;8.690;2022-09-09T03:47:35;3.00;;;1.50;;
4055;SDS011;2043;52.184;8.690;2022-09-09T03:50:02;2.80;;;1.30;;
4055;SDS011;2043;52.184;8.690;2022-09-09T03:52:38;2.77;;;1.43;;
4055;SDS011;2043;52.184;8.690;2022-09-09T03:55:07;5.30;;;1.30;;
4055;SDS011;2043;52.184;8.690;2022-09-09T03:57:34;3.17;;;1.40;;
4055;SDS011;2043;52.184;8.690;2022-09-09T04:00:05;2.87;;;1.50;;
4055;SDS011;2043;52.184;8.690;2022-09-09T04:02:34;3.60;;;1.33;;
4055;SDS011;2043;52.184;8.690;2022-09-09T04:05:01;3.50;;;1.50;;
4055;SDS011;2043;52.184;8.690;2022-09-09T04:07:28;2.87;;;1.30;;
4055;SDS011;2043;52.184;8.690;2022-09-09T04:09:54;3.23;;;1.50;;
4055;SDS011;2043;52.184;8.690;2022-09-09T04:12:21;3.30;;;1.30;;
4055;SDS011;2043;52.184;8.690;2022-09-09T04:14:48;3.40;;;1.60;;
4055;SDS011;2043;52.184;8.690;2022-09-09T04:17:15;3.30;;;1.50;;
4055;SDS011;2043;52.184;8.690;2022-09-09T04:19:43;2.70;;;1.20;;
4055;SDS011;2043;52.184;8.690;2022-09-09T04:22:10;2.30;;;1.07;;
4055;SDS011;2043;52.184;8.690;2022-09-09T04:24:37;4.27;;;1.20;;
4055;SDS011;2043;52.184;8.690;2022-09-09T04:27:04;2.40;;;1.20;;
4055;SDS011;2043;52.184;8.690;2022-09-09T04:29:31;2.20;;;1.13;;
4055;SDS011;2043;52.184;8.690;2022-09-09T04:31:58;3.20;;;1.40;;
4055;SDS011;2043;52.184;8.690;2022-09-09T04:34:24;3.50;;;1.27;;
4055;SDS011;2043;52.184;8.690;2022-09-09T04:36:51;2.80;;;1.30;;
4055;SDS011;2043;52.184;8.690;2022-09-09T04:39:18;2.80;;;1.33;;
4055;SDS011;2043;52.184;8.690;2022-09-09T04:41:45;2.60;;;1.20;;
4055;SDS011;2043;52.184;8.690;2022-09-09T04:44:13;3.10;;;1.47;;
4055;SDS011;2043;52.184;8.690;2022-09-09T04:46:40;2.87;;;1.43;;
4055;SDS011;2043;52.184;8.690;2022-09-09T04:49:07;2.53;;;1.30;;
4055;SDS011;2043;52.184;8.690;2022-09-09T04:51:40;3.20;;;1.20;;
4055;SDS011;2043;52.184;8.690;2022-09-09T04:54:07;3.10;;;1.40;;
4055;SDS011;2043;52.184;8.690;2022-09-09T04:56:33;2.73;;;1.37;;
4055;SDS011;2043;52.184;8.690;2022-09-09T04:59:00;5.23;;;1.50;;
4055;SDS011;2043;52.184;8.690;2022-09-09T05:01:29;2.93;;;1.23;;
4055;SDS011;2043;52.184;8.690;2022-09-09T05:03:56;3.50;;;1.50;;
4055;SDS011;2043;52.184;8.690;2022-09-09T05:06:22;2.90;;;1.50;;
4055;SDS011;2043;52.184;8.690;2022-09-09T05:08:50;3.87;;;1.57;;
4055;SDS011;2043;52.184;8.690;2022-09-09T05:11:24;2.30;;;1.23;;
4055;SDS011;2043;52.184;8.690;2022-09-09T05:13:53;3.17;;;1.40;;
4055;SDS011;2043;52.184;8.690;2022-09-09T05:16:21;5.17;;;1.47;;
4055;SDS011;2043;52.184;8.690;2022-09-09T05:18:49;3.10;;;1.40;;
4055;SDS011;2043;52.184;8.690;2022-09-09T05:21:18;8.70;;;1.70;;
4055;SDS011;2043;52.184;8.690;2022-09-09T05:23:46;5.30;;;1.70;;
4055;SDS011;2043;52.184;8.690;2022-09-09T05:26:15;3.80;;;1.60;;
4055;SDS011;2043;52.184;8.690;2022-09-09T05:28:45;4.63;;;1.77;;
4055;SDS011;2043;52.184;8.690;2022-09-09T05:31:13;4.47;;;1.63;;
4055;SDS011;2043;52.184;8.690;2022-09-09T05:33:43;6.53;;;1.70;;
4055;SDS011;2043;52.184;8.690;2022-09-09T05:36:13;5.70;;;1.70;;
4055;SDS011;2043;52.184;8.690;2022-09-09T05:38:45;5.90;;;1.87;;
4055;SDS011;2043;52.184;8.690;2022-09-09T05:41:13;4.93;;;1.80;;
4055;SDS011;2043;52.184;8.690;2022-09-09T05:43:43;4.07;;;1.80;;
4055;SDS011;2043;52.184;8.690;2022-09-09T05:46:13;3.20;;;1.57;;
4055;SDS011;2043;52.184;8.690;2022-09-09T05:48:42;4.00;;;1.70;;
4055;SDS011;2043;52.184;8.690;2022-09-09T05:51:13;3.70;;;1.30;;
4055;SDS011;2043;52.184;8.690;2022-09-09T05:53:44;5.23;;;1.70;;
4055;SDS011;2043;52.184;8.690;2022-09-09T05:56:15;3.90;;;1.30;;
4055;SDS011;2043;52.184;8.690;2022-09-09T05:58:46;5.83;;;1.80;;
4055;SDS011;2043;52.184;8.690;2022-09-09T06:01:16;7.40;;;2.03;;
4055;SDS011;2043;52.184;8.690;2022-09-09T06:03:45;4.73;;;1.90;;
4055;SDS011;2043;52.184;8.690;2022-09-09T06:06:14;6.40;;;2.10;;
4055;SDS011;2043;52.184;8.690;2022-09-09T06:08:50;9.67;;;1.80;;
4055;SDS011;2043;52.184;8.690;2022-09-09T06:11:22;4.00;;;1.47;;
4055;SDS011;2043;52.184;8.690;2022-09-09T06:13:51;4.40;;;1.77;;
4055;SDS011;2043;52.184;8.690;2022-09-09T06:16:21;3.83;;;1.50;;
4055;SDS011;2043;52.184;8.690;2022-09-09T06:18:50;5.13;;;1.73;;
4055;SDS011;2043;52.184;8.690;2022-09-09T06:21:20;3.50;;;1.33;;
4055;SDS011;2043;52.184;8.690;2022-09-09T06:23:49;7.63;;;1.47;;
4055;SDS011;2043;52.184;8.690;2022-09-09T06:28:57;5.50;;;1.80;;
4055;SDS011;2043;52.184;8.690;2022-09-09T06:31:26;4.40;;;1.80;;
4055;SDS011;2043;52.184;8.690;2022-09-09T06:33:58;5.97;;;1.70;;
4055;SDS011;2043;52.184;8.690;2022-09-09T06:36:29;5.03;;;1.73;;
4055;SDS011;2043;52.184;8.690;2022-09-09T06:38:58;6.27;;;1.60;;
4055;SDS011;2043;52.184;8.690;2022-09-09T06:41:29;7.17;;;1.90;;
4055;SDS011;2043;52.184;8.690;2022-09-09T06:43:57;3.53;;;1.47;;
4055;SDS011;2043;52.184;8.690;2022-09-09T06:46:28;3.67;;;1.70;;
4055;SDS011;2043;52.184;8.690;2022-09-09T06:48:57;6.53;;;1.90;;
4055;SDS011;2043;52.184;8.690;2022-09-09T06:51:29;4.00;;;1.90;;
4055;SDS011;2043;52.184;8.690;2022-09-09T06:53:59;5.50;;;1.90;;
4055;SDS011;2043;52.184;8.690;2022-09-09T06:56:38;4.20;;;1.63;;
4055;SDS011;2043;52.184;8.690;2022-09-09T06:59:09;3.17;;;1.60;;
4055;SDS011;2043;52.184;8.690;2022-09-09T07:01:37;3.60;;;1.50;;
4055;SDS011;2043;52.184;8.690;2022-09-09T07:04:11;4.43;;;1.50;;
4055;SDS011;2043;52.184;8.690;2022-09-09T07:06:40;5.93;;;1.90;;
4055;SDS011;2043;52.184;8.690;2022-09-09T07:09:13;4.70;;;1.97;;
4055;SDS011;2043;52.184;8.690;2022-09-09T07:11:50;3.43;;;1.40;;
4055;SDS011;2043;52.184;8.690;2022-09-09T07:14:19;3.63;;;1.40;;
4055;SDS011;2043;52.184;8.690;2022-09-09T07:16:47;4.20;;;1.50;;
4055;SDS011;2043;52.184;8.690;2022-09-09T07:19:15;2.97;;;1.33;;
4055;SDS011;2043;52.184;8.690;2022-09-09T07:21:43;6.73;;;1.60;;
4055;SDS011;2043;52.184;8.690;2022-09-09T07:24:10;3.70;;;1.50;;
4055;SDS011;2043;52.184;8.690;2022-09-09T07:26:39;4.27;;;1.50;;
4055;SDS011;2043;52.184;8.690;2022-09-09T07:29:09;4.60;;;1.60;;
4055;SDS011;2043;52.184;8.690;2022-09-09T07:31:46;3.00;;;1.30;;
4055;SDS011;2043;52.184;8.690;2022-09-09T07:34:13;4.67;;;1.50;;
4055;SDS011;2043;52.184;8.690;2022-09-09T07:36:40;3.73;;;1.50;;
4055;SDS011;2043;52.184;8.690;2022-09-09T07:39:09;3.23;;;1.40;;
4055;SDS011;2043;52.184;8.690;2022-09-09T07:41:44;4.13;;;1.63;;
4055;SDS011;2043;52.184;8.690;2022-09-09T07:44:13;4.73;;;1.50;;
4055;SDS011;2043;52.184;8.690;2022-09-09T07:46:45;4.47;;;1.70;;
4055;SDS011;2043;52.184;8.690;2022-09-09T07:49:14;2.80;;;1.40;;
4055;SDS011;2043;52.184;8.690;2022-09-09T07:51:42;4.53;;;1.70;;
4055;SDS011;2043;52.184;8.690;2022-09-09T07:54:13;4.30;;;1.47;;
4055;SDS011;2043;52.184;8.690;2022-09-09T07:56:41;3.30;;;1.33;;
4055;SDS011;2043;52.184;8.690;2022-09-09T07:59:09;3.43;;;1.50;;
4055;SDS011;2043;52.184;8.690;2022-09-09T08:01:42;4.03;;;1.70;;
4055;SDS011;2043;52.184;8.690;2022-09-09T08:04:16;3.07;;;1.40;;
4055;SDS011;2043;52.184;8.690;2022-09-09T08:06:46;3.23;;;1.33;;
4055;SDS011;2043;52.184;8.690;2022-09-09T08:09:19;3.17;;;1.50;;
4055;SDS011;2043;52.184;8.690;2022-09-09T08:11:55;3.90;;;1.40;;
4055;SDS011;2043;52.184;8.690;2022-09-09T08:14:23;4.53;;;1.53;;
4055;SDS011;2043;52.184;8.690;2022-09-09T08:16:51;4.60;;;1.60;;
4055;SDS011;2043;52.184;8.690;2022-09-09T08:19:20;4.13;;;1.30;;
4055;SDS011;2043;52.184;8.690;2022-09-09T08:21:48;3.43;;;1.40;;
4055;SDS011;2043;52.184;8.690;2022-09-09T08:24:15;3.13;;;1.63;;
4055;SDS011;2043;52.184;8.690;2022-09-09T08:26:44;3.50;;;1.33;;
4055;SDS011;2043;52.184;8.690;2022-09-09T08:29:13;6.50;;;1.30;;
4055;SDS011;2043;52.184;8.690;2022-09-09T08:31:45;3.63;;;1.40;;
4055;SDS011;2043;52.184;8.690;2022-09-09T08:34:17;2.73;;;1.27;;
4055;SDS011;2043;52.184;8.690;2022-09-09T08:36:47;3.30;;;1.37;;
4055;SDS011;2043;52.184;8.690;2022-09-09T08:39:17;3.17;;;1.27;;
4055;SDS011;2043;52.184;8.690;2022-09-09T08:52:30;3.30;;;1.40;;
4055;SDS011;2043;52.184;8.690;2022-09-09T08:55:16;2.97;;;1.30;;
4055;SDS011;2043;52.184;8.690;2022-09-09T08:57:49;4.03;;;1.37;;
4055;SDS011;2043;52.184;8.690;2022-09-09T09:00:19;3.50;;;1.33;;
4055;SDS011;2043;52.184;8.690;2022-09-09T09:02:49;2.70;;;1.30;;
4055;SDS011;2043;52.184;8.690;2022-09-09T09:05:33;3.03;;;1.50;;
4055;SDS011;2043;52.184;8.690;2022-09-09T09:11:09;3.20;;;1.63;;
4055;SDS011;2043;52.184;8.690;2022-09-09T09:13:46;3.60;;;1.27;;
4055;SDS011;2043;52.184;8.690;2022-09-09T09:18:59;3.30;;;1.40;;
4055;SDS011;2043;52.184;8.690;2022-09-09T09:21:32;3.20;;;1.30;;
4055;SDS011;2043;52.184;8.690;2022-09-09T09:24:05;2.80;;;1.37;;
4055;SDS011;2043;52.184;8.690;2022-09-09T09:26:47;3.53;;;1.30;;
4055;SDS011;2043;52.184;8.690;2022-09-09T09:29:18;3.03;;;1.50;;
4055;SDS011;2043;52.184;8.690;2022-09-09T09:31:52;3.57;;;1.40;;
4055;SDS011;2043;52.184;8.690;2022-09-09T09:34:23;4.13;;;1.70;;
4055;SDS011;2043;52.184;8.690;2022-09-09T09:36:54;3.20;;;1.33;;
4055;SDS011;2043;52.184;8.690;2022-09-09T09:39:23;3.30;;;1.30;;
4055;SDS011;2043;52.184;8.690;2022-09-09T09:42:17;4.10;;;1.50;;
4055;SDS011;2043;52.184;8.690;2022-09-09T09:44:48;4.90;;;1.43;;
4055;SDS011;2043;52.184;8.690;2022-09-09T09:47:19;4.30;;;1.50;;
4055;SDS011;2043;52.184;8.690;2022-09-09T09:49:59;2.60;;;1.30;;
4055;SDS011;2043;52.184;8.690;2022-09-09T09:52:29;4.80;;;1.50;;
4055;SDS011;2043;52.184;8.690;2022-09-09T09:55:02;2.87;;;1.27;;
4055;SDS011;2043;52.184;8.690;2022-09-09T09:57:33;2.83;;;1.30;;
4055;SDS011;2043;52.184;8.690;2022-09-09T10:00:04;2.77;;;1.30;;
4055;SDS011;2043;52.184;8.690;2022-09-09T10:02:44;3.10;;;1.30;;
4055;SDS011;2043;52.184;8.690;2022-09-09T10:05:16;2.90;;;1.40;;
4055;SDS011;2043;52.184;8.690;2022-09-09T10:08:02;3.23;;;1.20;;
4055;SDS011;2043;52.184;8.690;2022-09-09T10:24:39;2.70;;;1.20;;
4055;SDS011;2043;52.184;8.690;2022-09-09T10:36:18;2.50;;;1.30;;
4055;SDS011;2043;52.184;8.690;2022-09-09T10:38:57;2.70;;;1.30;;
4055;SDS011;2043;52.184;8.690;2022-09-09T10:55:39;2.40;;;1.20;;
4055;SDS011;2043;52.184;8.690;2022-09-09T10:58:20;2.70;;;1.30;;
4055;SDS011;2043;52.184;8.690;2022-09-09T11:00:57;2.40;;;1.10;;
4055;SDS011;2043;52.184;8.690;2022-09-09T11:03:34;2.20;;;1.10;;
4055;SDS011;2043;52.184;8.690;2022-09-09T11:06:06;3.53;;;1.30;;
4055;SDS011;2043;52.184;8.690;2022-09-09T11:08:45;3.17;;;1.20;;
4055;SDS011;2043;52.184;8.690;2022-09-09T11:11:25;2.30;;;1.27;;
4055;SDS011;2043;52.184;8.690;2022-09-09T11:14:05;4.00;;;1.40;;
4055;SDS011;2043;52.184;8.690;2022-09-09T11:16:51;2.83;;;1.20;;
4055;SDS011;2043;52.184;8.690;2022-09-09T11:27:50;2.43;;;1.30;;
4055;SDS011;2043;52.184;8.690;2022-09-09T11:30:43;3.10;;;1.20;;
4055;SDS011;2043;52.184;8.690;2022-09-09T11:38:47;3.07;;;1.10;;
4055;SDS011;2043;52.184;8.690;2022-09-09T11:41:17;2.50;;;1.07;;
4055;SDS011;2043;52.184;8.690;2022-09-09T11:43:53;3.83;;;1.13;;
4055;SDS011;2043;52.184;8.690;2022-09-09T11:46:22;2.23;;;1.10;;
4055;SDS011;2043;52.184;8.690;2022-09-09T11:49:02;2.77;;;1.10;;
4055;SDS011;2043;52.184;8.690;2022-09-09T11:51:31;2.63;;;1.10;;
4055;SDS011;2043;52.184;8.690;2022-09-09T11:53:59;3.77;;;1.40;;
4055;SDS011;2043;52.184;8.690;2022-09-09T11:56:42;3.27;;;1.40;;
4055;SDS011;2043;52.184;8.690;2022-09-09T12:01:50;2.33;;;1.10;;
4055;SDS011;2043;52.184;8.690;2022-09-09T12:04:42;3.00;;;1.20;;
4055;SDS011;2043;52.184;8.690;2022-09-09T12:09:59;2.63;;;1.27;;
4055;SDS011;2043;52.184;8.690;2022-09-09T12:12:31;2.17;;;1.10;;
4055;SDS011;2043;52.184;8.690;2022-09-09T12:17:41;3.00;;;1.23;;
4055;SDS011;2043;52.184;8.690;2022-09-09T12:28:02;2.13;;;1.03;;
4055;SDS011;2043;52.184;8.690;2022-09-09T12:33:21;3.20;;;1.30;;
4055;SDS011;2043;52.184;8.690;2022-09-09T12:35:57;2.57;;;1.13;;
4055;SDS011;2043;52.184;8.690;2022-09-09T12:38:35;2.30;;;1.20;;
4055;SDS011;2043;52.184;8.690;2022-09-09T12:41:05;2.83;;;1.30;;
4055;SDS011;2043;52.184;8.690;2022-09-09T12:43:32;2.27;;;1.10;;
4055;SDS011;2043;52.184;8.690;2022-09-09T12:46:00;3.37;;;1.30;;
4055;SDS011;2043;52.184;8.690;2022-09-09T12:48:36;2.83;;;1.10;;
4055;SDS011;2043;52.184;8.690;2022-09-09T12:51:07;2.47;;;1.00;;
4055;SDS011;2043;52.184;8.690;2022-09-09T12:53:51;2.37;;;1.03;;
4055;SDS011;2043;52.184;8.690;2022-09-09T12:56:19;2.47;;;1.20;;
4055;SDS011;2043;52.184;8.690;2022-09-09T12:58:49;2.60;;;1.20;;
4055;SDS011;2043;52.184;8.690;2022-09-09T13:01:22;2.30;;;1.10;;
4055;SDS011;2043;52.184;8.690;2022-09-09T13:03:53;3.70;;;1.30;;
4055;SDS011;2043;52.184;8.690;2022-09-09T13:06:25;2.73;;;1.17;;
4055;SDS011;2043;52.184;8.690;2022-09-09T13:08:55;2.53;;;1.00;;
4055;SDS011;2043;52.184;8.690;2022-09-09T13:11:26;2.20;;;1.10;;
4055;SDS011;2043;52.184;8.690;2022-09-09T13:14:00;3.63;;;1.50;;
4055;SDS011;2043;52.184;8.690;2022-09-09T13:16:28;2.57;;;1.33;;
4055;SDS011;2043;52.184;8.690;2022-09-09T13:19:00;2.43;;;1.10;;
4055;SDS011;2043;52.184;8.690;2022-09-09T13:21:35;2.30;;;1.07;;
4055;SDS011;2043;52.184;8.690;2022-09-09T13:24:06;3.10;;;1.20;;
4055;SDS011;2043;52.184;8.690;2022-09-09T13:26:55;2.23;;;1.30;;
4055;SDS011;2043;52.184;8.690;2022-09-09T13:29:23;2.40;;;1.20;;
4055;SDS011;2043;52.184;8.690;2022-09-09T13:31:50;2.53;;;1.20;;
4055;SDS011;2043;52.184;8.690;2022-09-09T13:34:29;2.30;;;1.10;;
4055;SDS011;2043;52.184;8.690;2022-09-09T13:36:59;2.30;;;1.17;;
4055;SDS011;2043;52.184;8.690;2022-09-09T13:39:34;2.10;;;1.10;;
4055;SDS011;2043;52.184;8.690;2022-09-09T13:42:03;2.70;;;1.20;;
4055;SDS011;2043;52.184;8.690;2022-09-09T13:44:36;3.00;;;1.17;;
4055;SDS011;2043;52.184;8.690;2022-09-09T13:49:40;2.17;;;1.10;;
4055;SDS011;2043;52.184;8.690;2022-09-09T13:54:36;2.10;;;1.00;;
4055;SDS011;2043;52.184;8.690;2022-09-09T13:57:03;2.43;;;1.20;;
4055;SDS011;2043;52.184;8.690;2022-09-09T13:59:30;2.20;;;1.10;;
4055;SDS011;2043;52.184;8.690;2022-09-09T14:02:18;2.00;;;1.00;;
4055;SDS011;2043;52.184;8.690;2022-09-09T14:04:47;3.00;;;1.13;;
4055;SDS011;2043;52.184;8.690;2022-09-09T14:07:17;2.00;;;1.10;;
4055;SDS011;2043;52.184;8.690;2022-09-09T14:09:45;2.10;;;1.10;;
4055;SDS011;2043;52.184;8.690;2022-09-09T14:12:16;2.63;;;1.10;;
4055;SDS011;2043;52.184;8.690;2022-09-09T14:14:44;2.27;;;1.20;;
4055;SDS011;2043;52.184;8.690;2022-09-09T14:17:11;2.50;;;1.20;;
4055;SDS011;2043;52.184;8.690;2022-09-09T14:19:38;2.80;;;1.20;;
4055;SDS011;2043;52.184;8.690;2022-09-09T14:22:05;2.73;;;1.20;;
4055;SDS011;2043;52.184;8.690;2022-09-09T14:24:31;2.10;;;1.00;;
4055;SDS011;2043;52.184;8.690;2022-09-09T14:27:00;2.40;;;1.10;;
4055;SDS011;2043;52.184;8.690;2022-09-09T14:29:27;2.00;;;1.00;;
4055;SDS011;2043;52.184;8.690;2022-09-09T14:31:55;2.10;;;1.00;;
4055;SDS011;2043;52.184;8.690;2022-09-09T14:34:22;2.20;;;1.10;;
4055;SDS011;2043;52.184;8.690;2022-09-09T14:36:49;2.20;;;1.10;;
4055;SDS011;2043;52.184;8.690;2022-09-09T14:39:17;2.10;;;1.10;;
4055;SDS011;2043;52.184;8.690;2022-09-09T14:41:44;2.10;;;1.07;;
4055;SDS011;2043;52.184;8.690;2022-09-09T14:44:11;2.20;;;1.00;;
4055;SDS011;2043;52.184;8.690;2022-09-09T14:46:38;4.30;;;1.20;;
4055;SDS011;2043;52.184;8.690;2022-09-09T14:49:05;2.20;;;1.10;;
4055;SDS011;2043;52.184;8.690;2022-09-09T14:51:32;2.10;;;1.00;;
4055;SDS011;2043;52.184;8.690;2022-09-09T14:54:00;2.93;;;1.30;;
4055;SDS011;2043;52.184;8.690;2022-09-09T14:56:29;2.43;;;1.20;;
4055;SDS011;2043;52.184;8.690;2022-09-09T14:58:58;2.63;;;1.30;;
4055;SDS011;2043;52.184;8.690;2022-09-09T15:01:27;2.40;;;1.20;;
4055;SDS011;2043;52.184;8.690;2022-09-09T15:03:59;2.13;;;1.10;;
4055;SDS011;2043;52.184;8.690;2022-09-09T15:06:28;2.30;;;1.00;;
4055;SDS011;2043;52.184;8.690;2022-09-09T15:08:59;1.93;;;0.93;;
4055;SDS011;2043;52.184;8.690;2022-09-09T15:11:30;2.23;;;1.10;;
4055;SDS011;2043;52.184;8.690;2022-09-09T15:14:04;2.20;;;1.17;;
4055;SDS011;2043;52.184;8.690;2022-09-09T15:16:32;2.00;;;0.90;;
4055;SDS011;2043;52.184;8.690;2022-09-09T15:19:00;2.07;;;1.10;;
4055;SDS011;2043;52.184;8.690;2022-09-09T15:21:30;2.20;;;1.07;;
4055;SDS011;2043;52.184;8.690;2022-09-09T15:23:59;2.40;;;1.17;;
4055;SDS011;2043;52.184;8.690;2022-09-09T15:26:26;2.40;;;1.10;;
4055;SDS011;2043;52.184;8.690;2022-09-09T15:28:54;2.03;;;1.00;;
4055;SDS011;2043;52.184;8.690;2022-09-09T15:31:22;2.60;;;1.30;;
4055;SDS011;2043;52.184;8.690;2022-09-09T15:33:51;2.10;;;1.10;;
4055;SDS011;2043;52.184;8.690;2022-09-09T15:36:20;3.50;;;1.20;;
4055;SDS011;2043;52.184;8.690;2022-09-09T15:38:49;3.03;;;1.20;;
4055;SDS011;2043;52.184;8.690;2022-09-09T15:41:18;2.40;;;1.00;;
4055;SDS011;2043;52.184;8.690;2022-09-09T15:43:46;2.77;;;1.20;;
4055;SDS011;2043;52.184;8.690;2022-09-09T15:48:57;2.30;;;1.20;;
4055;SDS011;2043;52.184;8.690;2022-09-09T15:51:29;2.93;;;1.30;;
4055;SDS011;2043;52.184;8.690;2022-09-09T15:54:08;2.37;;;1.20;;
4055;SDS011;2043;52.184;8.690;2022-09-09T15:56:39;3.00;;;1.20;;
4055;SDS011;2043;52.184;8.690;2022-09-09T15:59:07;2.60;;;1.10;;
4055;SDS011;2043;52.184;8.690;2022-09-09T16:01:35;2.20;;;1.10;;
4055;SDS011;2043;52.184;8.690;2022-09-09T16:04:03;2.60;;;1.10;;
4055;SDS011;2043;52.184;8.690;2022-09-09T16:06:30;2.10;;;1.00;;
4055;SDS011;2043;52.184;8.690;2022-09-09T16:08:59;2.40;;;1.10;;
4055;SDS011;2043;52.184;8.690;2022-09-09T16:11:30;2.00;;;1.00;;
4055;SDS011;2043;52.184;8.690;2022-09-09T16:13:59;2.37;;;1.10;;
4055;SDS011;2043;52.184;8.690;2022-09-09T16:16:27;2.03;;;1.10;;
4055;SDS011;2043;52.184;8.690;2022-09-09T16:18:59;2.43;;;1.20;;
4055;SDS011;2043;52.184;8.690;2022-09-09T16:21:29;2.07;;;1.10;;
4055;SDS011;2043;52.184;8.690;2022-09-09T16:24:02;2.20;;;1.00;;
4055;SDS011;2043;52.184;8.690;2022-09-09T16:26:31;2.10;;;1.00;;
4055;SDS011;2043;52.184;8.690;2022-09-09T16:28:59;1.80;;;0.90;;
4055;SDS011;2043;52.184;8.690;2022-09-09T16:31:27;2.10;;;1.00;;
4055;SDS011;2043;52.184;8.690;2022-09-09T16:33:56;2.10;;;1.10;;
4055;SDS011;2043;52.184;8.690;2022-09-09T16:36:24;2.20;;;1.00;;
4055;SDS011;2043;52.184;8.690;2022-09-09T16:38:53;2.20;;;1.03;;
4055;SDS011;2043;52.184;8.690;2022-09-09T16:41:21;2.03;;;1.10;;
4055;SDS011;2043;52.184;8.690;2022-09-09T16:43:51;2.00;;;1.07;;
4055;SDS011;2043;52.184;8.690;2022-09-09T16:46:20;2.20;;;1.10;;
4055;SDS011;2043;52.184;8.690;2022-09-09T16:48:48;2.23;;;1.03;;
4055;SDS011;2043;52.184;8.690;2022-09-09T16:51:20;2.47;;;1.00;;
4055;SDS011;2043;52.184;8.690;2022-09-09T16:53:50;2.13;;;1.00;;
4055;SDS011;2043;52.184;8.690;2022-09-09T16:56:19;2.00;;;1.00;;
4055;SDS011;2043;52.184;8.690;2022-09-09T16:58:49;2.00;;;1.00;;
4055;SDS011;2043;52.184;8.690;2022-09-09T17:01:17;2.57;;;1.10;;
4055;SDS011;2043;52.184;8.690;2022-09-09T17:03:44;2.10;;;1.20;;
4055;SDS011;2043;52.184;8.690;2022-09-09T17:06:12;2.10;;;1.00;;
4055;SDS011;2043;52.184;8.690;2022-09-09T17:08:42;2.20;;;1.10;;
4055;SDS011;2043;52.184;8.690;2022-09-09T17:11:16;2.20;;;1.10;;
4055;SDS011;2043;52.184;8.690;2022-09-09T17:13:45;2.40;;;1.03;;
4055;SDS011;2043;52.184;8.690;2022-09-09T17:16:14;2.27;;;1.10;;
4055;SDS011;2043;52.184;8.690;2022-09-09T17:18:43;2.70;;;1.10;;
4055;SDS011;2043;52.184;8.690;2022-09-09T17:21:13;2.60;;;1.03;;
4055;SDS011;2043;52.184;8.690;2022-09-09T17:23:42;2.33;;;1.03;;
4055;SDS011;2043;52.184;8.690;2022-09-09T17:26:11;3.00;;;1.40;;
4055;SDS011;2043;52.184;8.690;2022-09-09T17:28:41;2.40;;;1.20;;
4055;SDS011;2043;52.184;8.690;2022-09-09T17:31:09;1.93;;;0.97;;
4055;SDS011;2043;52.184;8.690;2022-09-09T17:33:38;2.00;;;1.00;;
4055;SDS011;2043;52.184;8.690;2022-09-09T17:36:07;2.47;;;1.00;;
4055;SDS011;2043;52.184;8.690;2022-09-09T17:38:42;2.30;;;1.10;;
4055;SDS011;2043;52.184;8.690;2022-09-09T17:43:41;2.20;;;1.03;;
4055;SDS011;2043;52.184;8.690;2022-09-09T17:46:16;2.20;;;1.20;;
4055;SDS011;2043;52.184;8.690;2022-09-09T17:48:49;3.50;;;0.90;;
4055;SDS011;2043;52.184;8.690;2022-09-09T17:51:18;2.10;;;0.97;;
4055;SDS011;2043;52.184;8.690;2022-09-09T17:53:50;2.40;;;1.00;;
4055;SDS011;2043;52.184;8.690;2022-09-09T17:56:18;2.50;;;1.13;;
4055;SDS011;2043;52.184;8.690;2022-09-09T17:58:47;2.10;;;1.10;;
4055;SDS011;2043;52.184;8.690;2022-09-09T18:01:25;2.00;;;1.00;;
4055;SDS011;2043;52.184;8.690;2022-09-09T18:03:54;2.23;;;1.10;;